Time;durP1;ratioP1;P1;durP2;ratioP2;P2;SDS_P1;SDS_P2;PMS_P1;PMS_P2;Temp;Humidity;BMP_temperature;BMP_pressure;BME280_temperature;BME280_humidity;BME280_pressure;Samples;Min_cycle;Max_cycle;Signal;HPM_P1;HPM_P2
2021/10/05 00:00:44;;;;;;;0.93;0.85;;;10.90;99.90;;;;;;5071136;28;20024;-73
2021/10/05 00:03:09;;;;;;;0.70;0.70;;;10.80;99.90;;;;;;5054337;28;20032;-72
2021/10/05 00:05:35;;;;;;;3.33;0.90;;;10.80;99.90;;;;;;5061215;28;20024;-72
2021/10/05 00:08:01;;;;;;;1.30;0.90;;;10.70;99.90;;;;;;5050158;28;20031;-72
2021/10/05 00:10:26;;;;;;;0.70;0.70;;;10.70;99.90;;;;;;5057651;28;20021;-72
2021/10/05 00:12:52;;;;;;;0.75;0.70;;;10.70;99.90;;;;;;5069373;28;20066;-72
2021/10/05 00:15:19;;;;;;;0.70;0.70;;;10.80;99.90;;;;;;5054835;28;20040;-72
2021/10/05 00:17:46;;;;;;;1.90;0.82;;;10.80;99.90;;;;;;5067175;28;20025;-72
2021/10/05 00:20:13;;;;;;;0.70;0.70;;;10.90;99.90;;;;;;5054985;28;20399;-72
2021/10/05 00:22:39;;;;;;;1.10;1.00;;;10.90;99.90;;;;;;5050509;28;20020;-72
2021/10/05 00:25:05;;;;;;;1.20;0.80;;;11.00;99.90;;;;;;5074315;28;20027;-72
2021/10/05 00:27:31;;;;;;;1.00;0.82;;;11.00;99.90;;;;;;5062532;28;20040;-72
2021/10/05 00:29:57;;;;;;;0.73;0.73;;;11.00;99.90;;;;;;5065686;28;20020;-73
2021/10/05 00:32:23;;;;;;;1.48;0.95;;;11.00;99.90;;;;;;5070854;28;20083;-72
2021/10/05 00:34:50;;;;;;;1.65;0.93;;;11.00;99.90;;;;;;5057025;28;20017;-72
2021/10/05 00:37:15;;;;;;;0.70;0.70;;;11.00;99.90;;;;;;5046861;28;20029;-72
2021/10/05 00:39:41;;;;;;;0.85;0.70;;;10.90;99.90;;;;;;5063412;28;20462;-72
2021/10/05 00:42:07;;;;;;;1.58;0.85;;;10.90;99.90;;;;;;5061121;28;20096;-72
2021/10/05 00:44:36;;;;;;;0.73;0.73;;;10.90;99.90;;;;;;5052909;28;20036;-72
2021/10/05 00:47:08;;;;;;;1.80;0.85;;;10.90;99.90;;;;;;5054921;28;20361;-72
2021/10/05 00:49:34;;;;;;;1.10;0.90;;;11.00;99.90;;;;;;5058852;28;20108;-72
2021/10/05 00:52:01;;;;;;;0.70;0.70;;;11.10;99.90;;;;;;5066513;28;20029;-72
2021/10/05 00:54:31;;;;;;;0.70;0.70;;;11.10;99.90;;;;;;5067187;28;20411;-72
2021/10/05 00:56:56;;;;;;;0.75;0.60;;;11.10;99.90;;;;;;5067040;28;20058;-73
2021/10/05 00:59:22;;;;;;;0.60;0.60;;;11.00;99.90;;;;;;5064338;28;20036;-73
2021/10/05 01:01:48;;;;;;;1.15;0.80;;;10.90;99.90;;;;;;5066104;28;20435;-72
2021/10/05 01:04:13;;;;;;;0.80;0.80;;;10.90;99.90;;;;;;5051768;28;20031;-72
2021/10/05 01:07:05;;;;;;;1.10;0.77;;;10.90;99.90;;;;;;5070705;28;20300;-73
2021/10/05 01:09:33;;;;;;;0.98;0.73;;;10.90;99.90;;;;;;5050423;28;20021;-73
2021/10/05 01:11:58;;;;;;;1.05;0.80;;;10.90;99.90;;;;;;5064601;28;20020;-72
2021/10/05 01:14:24;;;;;;;0.80;0.70;;;10.80;99.90;;;;;;5065414;28;20112;-72
2021/10/05 01:16:53;;;;;;;1.02;0.77;;;10.80;99.90;;;;;;5064054;28;20025;-72
2021/10/05 01:19:18;;;;;;;0.70;0.63;;;10.80;99.90;;;;;;5061394;28;20054;-72
2021/10/05 01:21:44;;;;;;;0.73;0.70;;;10.70;99.90;;;;;;5068114;28;20439;-72
2021/10/05 01:24:19;;;;;;;0.73;0.73;;;10.70;99.90;;;;;;5068799;28;20115;-72
2021/10/05 01:26:45;;;;;;;1.48;0.90;;;10.70;99.90;;;;;;5047396;28;20021;-72
2021/10/05 01:29:13;;;;;;;0.70;0.70;;;10.70;99.90;;;;;;5067058;28;20063;-73
2021/10/05 01:31:42;;;;;;;1.65;0.88;;;10.70;99.90;;;;;;5040200;28;20035;-72
2021/10/05 01:34:09;;;;;;;0.70;0.70;;;10.50;99.90;;;;;;5047356;28;20479;-72
2021/10/05 01:36:34;;;;;;;1.13;0.82;;;10.50;99.90;;;;;;5066905;28;20016;-72
2021/10/05 01:39:02;;;;;;;0.70;0.70;;;10.50;99.90;;;;;;5046828;28;20033;-73
2021/10/05 01:41:28;;;;;;;0.60;0.60;;;10.50;99.90;;;;;;5050721;28;20029;-72
2021/10/05 01:43:53;;;;;;;1.85;1.02;;;10.50;99.90;;;;;;5061551;28;20037;-72
2021/10/05 01:46:19;;;;;;;1.15;0.68;;;10.50;99.90;;;;;;5067249;28;20082;-73
2021/10/05 01:48:45;;;;;;;0.60;0.60;;;10.40;99.90;;;;;;5062259;28;20471;-72
2021/10/05 01:51:11;;;;;;;0.80;0.75;;;10.50;99.90;;;;;;5048886;28;20613;-72
2021/10/05 01:53:39;;;;;;;1.45;1.05;;;10.60;99.90;;;;;;5065515;28;20035;-73
2021/10/05 01:56:06;;;;;;;0.60;0.60;;;10.50;99.90;;;;;;5049450;28;20089;-72
2021/10/05 01:58:31;;;;;;;0.68;0.68;;;10.60;99.90;;;;;;5069217;28;20471;-72
2021/10/05 02:00:57;;;;;;;1.50;0.85;;;10.50;99.90;;;;;;5063843;28;20027;-72
2021/10/05 02:03:23;;;;;;;1.05;0.77;;;10.70;99.90;;;;;;5068446;28;20511;-72
2021/10/05 02:05:49;;;;;;;0.75;0.75;;;10.70;99.90;;;;;;5044093;28;20502;-72
2021/10/05 02:08:15;;;;;;;0.63;0.63;;;10.80;99.90;;;;;;5070904;28;20040;-72
2021/10/05 02:10:41;;;;;;;1.10;0.70;;;10.80;99.90;;;;;;5066079;28;20063;-72
2021/10/05 02:13:07;;;;;;;0.70;0.60;;;10.80;99.90;;;;;;5051259;28;20108;-72
2021/10/05 02:15:35;;;;;;;0.70;0.70;;;10.80;99.90;;;;;;5068039;28;20043;-72
2021/10/05 02:18:02;;;;;;;0.95;0.65;;;10.70;99.90;;;;;;5064844;28;20495;-72
2021/10/05 02:20:27;;;;;;;0.60;0.60;;;10.80;99.90;;;;;;5067167;28;20376;-72
2021/10/05 02:22:53;;;;;;;1.25;0.68;;;10.80;99.90;;;;;;5068277;28;20042;-73
2021/10/05 02:25:19;;;;;;;0.77;0.77;;;10.70;99.90;;;;;;5052558;28;20231;-72
2021/10/05 02:27:45;;;;;;;1.92;1.13;;;10.80;99.90;;;;;;5056604;28;20032;-72
2021/10/05 02:30:11;;;;;;;1.27;0.80;;;10.80;99.90;;;;;;5055029;28;20036;-73
2021/10/05 02:32:37;;;;;;;0.60;0.60;;;10.80;99.90;;;;;;5056906;28;20031;-72
2021/10/05 02:35:03;;;;;;;1.15;1.00;;;10.70;99.90;;;;;;5063871;28;20024;-72
2021/10/05 02:37:31;;;;;;;0.60;0.60;;;10.80;99.90;;;;;;5050387;28;20038;-72
2021/10/05 02:39:58;;;;;;;0.60;0.60;;;10.80;99.90;;;;;;5060139;28;20025;-72
2021/10/05 02:42:24;;;;;;;2.85;1.40;;;10.90;99.90;;;;;;5039545;28;20033;-72
2021/10/05 02:44:50;;;;;;;2.22;0.70;;;10.90;99.90;;;;;;5052553;28;20108;-72
2021/10/05 02:47:16;;;;;;;1.10;1.00;;;10.90;99.90;;;;;;5062147;28;20452;-72
2021/10/05 02:49:44;;;;;;;0.77;0.77;;;10.90;99.90;;;;;;5067708;28;20103;-72
2021/10/05 02:52:14;;;;;;;0.75;0.60;;;10.90;99.90;;;;;;5070695;28;20161;-72
2021/10/05 02:54:41;;;;;;;1.30;0.73;;;11.00;99.90;;;;;;5041101;28;20039;-72
2021/10/05 02:57:07;;;;;;;0.70;0.70;;;11.00;99.90;;;;;;5050977;28;20078;-72
2021/10/05 02:59:33;;;;;;;1.17;0.93;;;11.00;99.90;;;;;;5072129;28;20029;-72
2021/10/05 03:01:59;;;;;;;0.75;0.70;;;11.00;99.90;;;;;;5064706;28;20480;-72
2021/10/05 03:04:25;;;;;;;3.28;1.23;;;11.00;99.90;;;;;;5059081;28;20036;-73
2021/10/05 03:06:51;;;;;;;0.65;0.65;;;11.10;99.90;;;;;;5062695;28;20020;-73
2021/10/05 03:09:17;;;;;;;0.60;0.60;;;11.10;99.90;;;;;;5043666;28;20412;-72
2021/10/05 03:11:42;;;;;;;1.13;0.90;;;11.00;99.90;;;;;;5069708;28;20024;-72
2021/10/05 03:14:08;;;;;;;0.60;0.60;;;11.10;99.90;;;;;;5069995;28;20048;-72
2021/10/05 03:16:34;;;;;;;1.55;1.02;;;11.10;99.90;;;;;;5067794;28;20387;-72
2021/10/05 03:18:59;;;;;;;0.70;0.70;;;11.00;99.90;;;;;;5071499;28;20031;-72
2021/10/05 03:21:26;;;;;;;1.70;1.05;;;11.00;99.90;;;;;;5070793;28;20388;-72
2021/10/05 03:23:51;;;;;;;0.60;0.60;;;11.00;99.90;;;;;;5062763;28;20024;-72
2021/10/05 03:26:17;;;;;;;3.63;0.90;;;11.00;99.90;;;;;;5060701;28;20044;-72
2021/10/05 03:28:43;;;;;;;1.45;0.93;;;10.90;99.90;;;;;;5044893;28;20406;-72
2021/10/05 03:31:13;;;;;;;1.23;0.90;;;10.90;99.90;;;;;;5071280;28;20064;-72
2021/10/05 03:33:43;;;;;;;0.70;0.70;;;10.90;99.90;;;;;;5068759;28;20024;-72
2021/10/05 03:36:10;;;;;;;1.20;0.70;;;10.90;99.90;;;;;;5051752;28;20432;-72
2021/10/05 03:38:37;;;;;;;1.73;0.98;;;10.90;99.90;;;;;;5049731;28;20439;-72
2021/10/05 03:41:04;;;;;;;1.63;1.10;;;10.90;99.90;;;;;;5051370;28;20428;-72
2021/10/05 03:43:29;;;;;;;0.85;0.70;;;11.00;99.90;;;;;;5070930;28;20093;-72
2021/10/05 03:45:56;;;;;;;1.20;0.93;;;11.00;99.90;;;;;;5060992;28;20396;-72
2021/10/05 03:48:21;;;;;;;0.70;0.70;;;11.00;99.90;;;;;;5061676;28;20450;-72
2021/10/05 03:50:47;;;;;;;1.48;0.80;;;11.00;99.90;;;;;;5053055;28;20024;-73
2021/10/05 03:53:17;;;;;;;0.80;0.73;;;11.00;99.90;;;;;;5057863;28;20037;-72
2021/10/05 03:55:52;;;;;;;1.30;0.80;;;11.00;99.90;;;;;;5065536;28;20016;-72
2021/10/05 03:58:19;;;;;;;0.75;0.70;;;10.90;99.90;;;;;;5062088;28;20171;-72
2021/10/05 04:00:46;;;;;;;1.00;0.98;;;10.90;99.90;;;;;;5066464;28;20407;-73
2021/10/05 04:03:12;;;;;;;0.88;0.88;;;11.00;99.90;;;;;;5064926;28;20037;-72
2021/10/05 04:05:38;;;;;;;1.50;1.10;;;11.00;99.90;;;;;;5059419;28;20027;-72
2021/10/05 04:08:03;;;;;;;0.80;0.80;;;11.00;99.90;;;;;;5063010;28;20028;-73
2021/10/05 04:10:30;;;;;;;0.82;0.70;;;10.90;99.90;;;;;;5055433;28;20028;-72
2021/10/05 04:12:55;;;;;;;1.83;1.13;;;10.90;99.90;;;;;;5064076;28;20024;-72
2021/10/05 04:15:21;;;;;;;0.93;0.90;;;10.80;99.90;;;;;;5064711;28;20395;-72
2021/10/05 04:17:47;;;;;;;0.95;0.82;;;10.80;99.90;;;;;;5062268;28;20033;-73
2021/10/05 04:20:12;;;;;;;0.70;0.70;;;10.80;99.90;;;;;;5069016;28;20103;-73
2021/10/05 04:22:38;;;;;;;0.95;0.82;;;10.80;99.90;;;;;;5065932;28;20021;-72
2021/10/05 04:25:06;;;;;;;1.10;0.90;;;10.80;99.90;;;;;;5067624;28;20083;-73
2021/10/05 04:27:35;;;;;;;1.48;0.70;;;10.70;99.90;;;;;;5049825;28;20098;-73
2021/10/05 04:30:01;;;;;;;1.20;0.80;;;10.80;99.90;;;;;;5065573;28;20426;-73
2021/10/05 04:32:27;;;;;;;2.03;0.85;;;10.80;99.90;;;;;;5061826;28;20278;-72
2021/10/05 04:34:53;;;;;;;0.88;0.70;;;10.70;99.90;;;;;;5063210;28;20032;-73
2021/10/05 04:37:18;;;;;;;1.00;0.80;;;10.70;99.90;;;;;;5047682;28;20028;-73
2021/10/05 04:39:44;;;;;;;0.60;0.60;;;10.80;99.90;;;;;;5068707;28;20024;-72
2021/10/05 04:42:10;;;;;;;1.75;0.90;;;10.80;99.90;;;;;;5061978;28;20089;-73
2021/10/05 04:44:36;;;;;;;0.98;0.88;;;10.80;99.90;;;;;;5044887;28;20039;-73
2021/10/05 04:47:02;;;;;;;1.15;0.80;;;10.80;99.90;;;;;;5053912;28;20107;-72
2021/10/05 04:49:28;;;;;;;0.70;0.70;;;10.80;99.90;;;;;;5062189;28;20025;-72
2021/10/05 04:51:53;;;;;;;1.33;1.10;;;10.80;99.90;;;;;;5066134;28;20036;-73
2021/10/05 04:54:19;;;;;;;1.45;1.00;;;10.70;99.90;;;;;;5063732;28;20029;-73
2021/10/05 04:56:45;;;;;;;0.70;0.70;;;10.70;99.90;;;;;;5063914;28;20035;-73
2021/10/05 04:59:11;;;;;;;0.80;0.80;;;10.70;99.90;;;;;;5062987;28;20028;-73
2021/10/05 05:01:37;;;;;;;1.27;0.80;;;10.70;99.90;;;;;;5066049;28;20015;-73
2021/10/05 05:04:03;;;;;;;2.05;0.95;;;10.50;99.90;;;;;;5056507;28;20066;-72
2021/10/05 05:06:28;;;;;;;0.80;0.80;;;10.50;99.90;;;;;;5062847;28;20017;-73
2021/10/05 05:08:54;;;;;;;0.70;0.70;;;10.60;99.90;;;;;;5063735;28;20029;-73
2021/10/05 05:11:20;;;;;;;1.50;0.82;;;10.50;99.90;;;;;;5064770;28;20055;-72
2021/10/05 05:13:45;;;;;;;1.10;0.95;;;10.20;99.90;;;;;;5055182;28;20077;-72
2021/10/05 05:16:11;;;;;;;4.10;1.33;;;10.50;99.90;;;;;;5038619;28;20028;-73
2021/10/05 05:18:37;;;;;;;0.70;0.70;;;10.40;99.90;;;;;;5066360;28;20039;-74
2021/10/05 05:21:02;;;;;;;0.93;0.80;;;10.40;99.90;;;;;;5065041;28;20103;-72
2021/10/05 05:23:28;;;;;;;4.40;1.33;;;10.30;99.90;;;;;;5064768;28;20048;-72
2021/10/05 05:25:53;;;;;;;2.15;1.45;;;10.30;99.90;;;;;;5064573;28;20025;-72
2021/10/05 05:28:20;;;;;;;1.00;0.90;;;10.30;99.90;;;;;;5046902;28;20039;-72
2021/10/05 05:30:46;;;;;;;1.40;1.08;;;10.30;99.90;;;;;;5056796;28;20048;-72
2021/10/05 05:33:12;;;;;;;1.02;0.85;;;10.30;99.90;;;;;;5052513;28;20025;-73
2021/10/05 05:35:37;;;;;;;1.55;1.02;;;10.20;99.90;;;;;;5063375;28;20518;-72
2021/10/05 05:38:03;;;;;;;1.75;1.13;;;10.20;99.90;;;;;;5051300;28;20098;-72
2021/10/05 05:40:29;;;;;;;2.65;1.20;;;10.20;99.90;;;;;;5062620;28;20383;-71
2021/10/05 05:42:54;;;;;;;3.00;1.17;;;10.20;99.90;;;;;;5054779;28;20031;-72
2021/10/05 05:45:20;;;;;;;3.90;1.23;;;10.30;99.90;;;;;;5062137;28;20483;-72
2021/10/05 05:47:45;;;;;;;2.38;1.10;;;10.30;99.90;;;;;;5047075;28;20435;-71
2021/10/05 05:50:11;;;;;;;2.10;1.27;;;10.30;99.90;;;;;;5050904;28;20851;-72
2021/10/05 05:52:37;;;;;;;2.05;1.30;;;10.20;99.90;;;;;;5055979;28;20025;-72
2021/10/05 05:55:03;;;;;;;2.15;1.40;;;10.30;99.90;;;;;;5062895;28;20078;-72
2021/10/05 05:57:30;;;;;;;2.58;1.63;;;10.30;99.90;;;;;;5057014;28;20047;-72
2021/10/05 05:59:55;;;;;;;1.52;1.00;;;10.30;99.90;;;;;;5065530;28;20369;-72
2021/10/05 06:02:21;;;;;;;1.45;1.10;;;10.30;99.90;;;;;;5045309;28;20077;-72
2021/10/05 06:04:47;;;;;;;2.25;1.17;;;10.30;99.90;;;;;;5066533;28;20103;-72
2021/10/05 06:07:12;;;;;;;1.27;1.00;;;10.30;99.90;;;;;;5061390;28;20637;-72
2021/10/05 06:09:38;;;;;;;2.83;1.27;;;10.40;99.90;;;;;;5063804;28;20029;-72
2021/10/05 06:12:08;;;;;;;1.58;1.00;;;10.30;99.90;;;;;;5042332;28;20050;-72
2021/10/05 06:14:33;;;;;;;1.30;0.90;;;10.30;99.90;;;;;;5060490;28;20448;-72
2021/10/05 06:17:01;;;;;;;1.85;1.05;;;10.30;99.90;;;;;;5058137;28;20094;-72
2021/10/05 06:19:27;;;;;;;0.80;0.80;;;10.30;99.90;;;;;;5060383;28;20024;-72
2021/10/05 06:21:53;;;;;;;1.85;1.00;;;10.40;99.90;;;;;;5045626;28;20542;-72
2021/10/05 06:24:18;;;;;;;2.95;1.13;;;10.50;99.90;;;;;;5060836;28;20107;-72
2021/10/05 06:26:45;;;;;;;1.17;1.08;;;;;;;;;;5063014;28;20087;-72
2021/10/05 06:29:11;;;;;;;2.28;0.85;;;10.70;99.90;;;;;;5062648;28;20028;-72
2021/10/05 06:31:36;;;;;;;1.05;1.02;;;10.70;99.90;;;;;;5045458;28;20070;-72
2021/10/05 06:34:02;;;;;;;1.33;0.90;;;10.80;99.90;;;;;;5044508;28;20028;-73
2021/10/05 06:36:28;;;;;;;2.72;1.25;;;10.80;99.90;;;;;;5068863;28;20025;-73
2021/10/05 06:38:54;;;;;;;1.77;1.23;;;10.80;99.90;;;;;;5062898;28;20028;-73
2021/10/05 06:41:21;;;;;;;1.52;1.13;;;10.90;99.90;;;;;;5063199;28;20031;-72
2021/10/05 06:43:47;;;;;;;2.03;1.00;;;10.90;99.90;;;;;;5062835;28;20120;-72
2021/10/05 06:46:13;;;;;;;2.15;1.08;;;11.00;99.90;;;;;;5042173;28;20458;-72
2021/10/05 06:48:38;;;;;;;2.40;1.10;;;11.00;99.90;;;;;;5046265;28;20036;-72
2021/10/05 06:51:05;;;;;;;4.78;1.30;;;11.00;99.90;;;;;;5046239;28;20029;-72
2021/10/05 06:53:31;;;;;;;1.90;1.20;;;11.20;99.90;;;;;;5065000;28;20022;-73
2021/10/05 06:55:56;;;;;;;5.38;1.42;;;11.20;99.90;;;;;;5063805;28;20059;-72
2021/10/05 06:58:22;;;;;;;1.38;1.00;;;11.30;99.90;;;;;;5065301;28;20074;-72
2021/10/05 07:00:48;;;;;;;2.15;0.93;;;11.40;99.90;;;;;;5064345;28;20063;-73
2021/10/05 07:03:14;;;;;;;2.15;1.10;;;11.40;99.90;;;;;;5066292;28;20033;-72
2021/10/05 07:05:39;;;;;;;0.93;0.80;;;11.40;99.90;;;;;;5065612;28;20690;-72
2021/10/05 07:08:09;;;;;;;4.53;1.38;;;11.70;99.90;;;;;;5062486;28;20400;-72
2021/10/05 07:10:36;;;;;;;2.28;1.17;;;11.80;99.90;;;;;;5064601;28;20096;-73
2021/10/05 07:13:03;;;;;;;8.15;2.95;;;11.80;99.90;;;;;;5065585;28;20504;-72
2021/10/05 07:15:28;;;;;;;5.47;2.42;;;11.90;99.90;;;;;;5046707;28;20044;-72
2021/10/05 07:17:55;;;;;;;3.80;2.30;;;12.00;99.90;;;;;;5065132;28;20021;-72
2021/10/05 07:20:21;;;;;;;4.25;1.58;;;12.10;99.90;;;;;;5064125;28;20059;-72
2021/10/05 07:22:47;;;;;;;4.13;1.88;;;12.20;99.90;;;;;;5064417;28;20551;-73
2021/10/05 07:25:12;;;;;;;5.47;2.13;;;12.30;99.90;;;;;;5063060;28;20032;-72
2021/10/05 07:27:38;;;;;;;2.75;1.23;;;12.30;99.90;;;;;;5063756;28;20123;-72
2021/10/05 07:30:06;;;;;;;2.88;1.10;;;12.40;99.90;;;;;;5062988;28;20036;-72
2021/10/05 07:32:32;;;;;;;2.00;1.13;;;12.40;99.90;;;;;;5067194;28;20524;-72
2021/10/05 07:34:58;;;;;;;2.65;1.55;;;12.40;99.90;;;;;;5068130;28;20021;-72
2021/10/05 07:37:24;;;;;;;2.53;1.25;;;12.40;99.90;;;;;;5068294;28;20075;-72
2021/10/05 07:39:50;;;;;;;1.25;0.90;;;12.50;99.90;;;;;;5068653;28;20032;-72
2021/10/05 07:42:15;;;;;;;9.57;3.38;;;12.50;99.90;;;;;;5049021;28;20376;-72
2021/10/05 07:44:41;;;;;;;5.88;2.03;;;12.60;99.90;;;;;;5067284;28;20070;-72
2021/10/05 07:47:07;;;;;;;4.75;1.02;;;12.70;99.90;;;;;;5066542;28;20059;-73
2021/10/05 07:49:33;;;;;;;2.05;1.30;;;12.70;99.90;;;;;;5047502;28;20472;-72
2021/10/05 07:52:00;;;;;;;1.35;0.80;;;12.90;99.90;;;;;;5069029;28;20037;-72
2021/10/05 07:54:25;;;;;;;6.10;2.08;;;12.80;99.90;;;;;;5068396;28;20032;-73
2021/10/05 07:56:51;;;;;;;0.57;0.57;;;12.90;99.90;;;;;;5068207;28;20165;-72
2021/10/05 07:59:17;;;;;;;2.70;1.05;;;13.10;99.90;;;;;;5064944;28;20033;-72
2021/10/05 08:01:49;;;;;;;2.50;1.10;;;13.10;99.90;;;;;;5067497;28;20029;-72
2021/10/05 08:04:16;;;;;;;1.13;0.85;;;13.20;99.90;;;;;;5068119;28;20021;-72
2021/10/05 08:06:42;;;;;;;2.15;1.08;;;13.30;99.90;;;;;;5057988;28;20032;-72
2021/10/05 08:09:08;;;;;;;1.23;0.60;;;13.50;99.90;;;;;;5064825;28;20411;-72
2021/10/05 08:11:33;;;;;;;0.65;0.60;;;13.60;99.90;;;;;;5068214;28;20019;-72
2021/10/05 08:13:59;;;;;;;0.50;0.50;;;13.60;99.90;;;;;;5045233;28;20124;-72
2021/10/05 08:16:30;;;;;;;0.50;0.50;;;13.70;99.90;;;;;;5044218;28;20467;-72
2021/10/05 08:19:00;;;;;;;0.70;0.70;;;13.80;99.90;;;;;;5063086;28;20024;-72
2021/10/05 08:21:27;;;;;;;1.45;0.98;;;13.90;99.90;;;;;;5053011;28;20043;-72
2021/10/05 08:23:53;;;;;;;2.13;0.93;;;14.00;99.90;;;;;;5072475;28;20510;-72
2021/10/05 08:26:20;;;;;;;1.40;0.80;;;14.30;99.90;;;;;;5050471;28;20052;-72
2021/10/05 08:28:46;;;;;;;0.63;0.63;;;14.30;99.90;;;;;;5067614;28;20331;-72
2021/10/05 08:31:12;;;;;;;2.30;1.35;;;14.80;99.90;;;;;;5048930;28;20137;-72
2021/10/05 08:33:38;;;;;;;1.45;0.70;;;14.70;99.90;;;;;;5052087;28;20111;-71
2021/10/05 08:36:04;;;;;;;1.65;0.80;;;14.90;99.90;;;;;;5068680;28;20025;-73
2021/10/05 08:38:29;;;;;;;3.72;0.95;;;15.10;99.90;;;;;;5069066;28;20024;-72
2021/10/05 08:40:55;;;;;;;0.60;0.60;;;15.30;99.90;;;;;;5049999;28;20052;-72
2021/10/05 08:43:22;;;;;;;2.85;1.13;;;15.70;99.90;;;;;;5064962;28;20028;-72
2021/10/05 08:45:48;;;;;;;1.92;0.73;;;15.80;99.90;;;;;;5067809;28;20081;-72
2021/10/05 08:48:15;;;;;;;0.73;0.63;;;15.90;99.90;;;;;;5065519;28;20033;-72
2021/10/05 08:50:41;;;;;;;0.50;0.50;;;15.20;99.90;;;;;;5067956;28;20108;-72
2021/10/05 08:53:07;;;;;;;1.65;0.95;;;15.00;99.90;;;;;;5041289;28;20017;-73
2021/10/05 08:55:33;;;;;;;1.23;0.80;;;14.90;99.90;;;;;;5070364;28;20111;-72
2021/10/05 08:57:58;;;;;;;1.35;0.75;;;13.80;99.90;;;;;;5056461;28;20062;-72
2021/10/05 09:00:35;;;;;;;1.67;0.90;;;14.50;99.90;;;;;;5064767;28;20032;-72
2021/10/05 09:03:00;;;;;;;0.70;0.65;;;14.40;99.90;;;;;;5061533;28;20511;-72
2021/10/05 09:05:27;;;;;;;0.85;0.65;;;14.40;99.90;;;;;;5046589;28;20029;-72
2021/10/05 09:07:56;;;;;;;2.03;0.93;;;14.60;99.90;;;;;;5066377;28;20031;-72
2021/10/05 09:10:26;;;;;;;1.30;0.85;;;14.60;99.90;;;;;;5059588;28;20094;-72
2021/10/05 09:12:52;;;;;;;0.63;0.63;;;14.70;99.90;;;;;;5076019;28;20031;-72
2021/10/05 09:15:19;;;;;;;0.80;0.70;;;14.70;99.90;;;;;;5058878;28;20041;-72
2021/10/05 09:17:58;;;;;;;0.88;0.80;;;14.70;99.90;;;;;;5047652;28;20090;-72
2021/10/05 09:20:33;;;;;;;0.70;0.70;;;14.80;99.90;;;;;;5066119;28;20108;-72
2021/10/05 09:23:13;;;;;;;0.52;0.52;;;14.90;99.90;;;;;;5067021;28;20135;-72
2021/10/05 09:25:48;;;;;;;1.23;0.65;;;15.00;99.90;;;;;;5058063;28;20479;-72
2021/10/05 09:28:30;;;;;;;1.17;0.60;;;15.10;99.90;;;;;;5063597;28;20040;-72
2021/10/05 09:31:03;;;;;;;0.40;0.40;;;15.00;99.90;;;;;;5062297;28;20063;-72
2021/10/05 09:33:29;;;;;;;1.35;1.02;;;15.20;99.90;;;;;;5052095;28;20025;-72
2021/10/05 09:35:55;;;;;;;2.22;0.82;;;15.50;99.90;;;;;;5062565;28;20017;-72
2021/10/05 09:38:22;;;;;;;1.33;0.85;;;15.40;99.90;;;;;;5059700;28;20028;-72
2021/10/05 09:41:02;;;;;;;1.10;0.65;;;15.50;99.90;;;;;;5044659;28;20060;-72
2021/10/05 09:43:28;;;;;;;0.60;0.60;;;15.40;99.90;;;;;;5035674;28;20043;-72
2021/10/05 09:46:06;;;;;;;1.23;0.80;;;15.40;99.90;;;;;;5054469;28;20410;-73
2021/10/05 09:48:32;;;;;;;0.50;0.50;;;15.30;99.90;;;;;;5060203;28;20041;-73
2021/10/05 09:50:57;;;;;;;1.38;0.70;;;15.40;99.90;;;;;;5065799;28;20020;-73
2021/10/05 09:53:24;;;;;;;0.50;0.50;;;15.60;99.90;;;;;;5054346;28;20032;-73
2021/10/05 09:55:50;;;;;;;0.65;0.63;;;15.90;99.90;;;;;;5061183;28;20033;-73
2021/10/05 09:58:15;;;;;;;1.13;0.57;;;16.20;99.90;;;;;;5065743;28;20373;-73
2021/10/05 10:00:46;;;;;;;1.08;0.80;;;16.80;99.90;;;;;;5040147;28;20364;-72
2021/10/05 10:03:15;;;;;;;0.75;0.68;;;17.00;99.90;;;;;;5061980;28;20036;-73
2021/10/05 10:05:40;;;;;;;1.13;0.60;;;17.10;99.90;;;;;;5059456;28;20043;-72
2021/10/05 10:08:07;;;;;;;1.15;0.63;;;16.80;99.90;;;;;;5036262;28;20499;-72
2021/10/05 10:10:38;;;;;;;1.13;0.60;;;16.90;99.90;;;;;;5033618;28;20613;-73
2021/10/05 10:13:09;;;;;;;1.17;0.68;;;17.30;99.90;;;;;;5060148;28;20355;-73
2021/10/05 10:15:37;;;;;;;0.63;0.60;;;16.80;99.90;;;;;;5056000;28;20070;-73
2021/10/05 10:18:15;;;;;;;1.40;0.80;;;16.50;99.90;;;;;;5062230;28;20044;-72
2021/10/05 10:20:43;;;;;;;0.50;0.50;;;16.90;99.90;;;;;;5065612;28;20060;-73
2021/10/05 10:23:23;;;;;;;0.85;0.60;;;18.10;99.90;;;;;;5063717;28;20027;-73
2021/10/05 10:25:59;;;;;;;0.60;0.60;;;18.60;99.90;;;;;;5066521;28;20037;-73
2021/10/05 10:28:35;;;;;;;1.75;0.75;;;19.40;99.90;;;;;;5041581;28;20035;-72
2021/10/05 10:31:03;;;;;;;1.00;0.70;;;19.60;99.90;;;;;;5049445;28;20043;-72
2021/10/05 10:33:45;;;;;;;3.80;0.90;;;19.80;99.90;;;;;;5062611;28;20100;-73
2021/10/05 10:36:11;;;;;;;1.65;0.60;;;19.60;99.90;;;;;;5060354;28;20047;-72
2021/10/05 10:38:42;;;;;;;0.52;0.52;;;19.90;99.90;;;;;;5055654;28;20024;-73
2021/10/05 10:41:19;;;;;;;0.52;0.43;;;19.60;99.90;;;;;;5061861;28;20025;-72
2021/10/05 10:43:54;;;;;;;0.50;0.50;;;19.60;99.90;;;;;;5059608;28;20512;-72
2021/10/05 10:46:25;;;;;;;0.65;0.50;;;19.80;99.90;;;;;;5066449;28;20028;-73
2021/10/05 10:48:59;;;;;;;0.82;0.60;;;20.20;99.90;;;;;;5068385;28;20032;-73
2021/10/05 10:51:29;;;;;;;0.60;0.50;;;20.40;99.90;;;;;;5042072;28;20036;-73
2021/10/05 10:53:56;;;;;;;0.57;0.50;;;20.40;99.90;;;;;;5041989;28;20136;-73
2021/10/05 10:56:33;;;;;;;0.40;0.40;;;20.20;99.60;;;;;;5058688;28;20396;-73
2021/10/05 10:59:04;;;;;;;0.50;0.50;;;19.80;99.90;;;;;;5066643;28;20500;-72
2021/10/05 11:01:46;;;;;;;2.67;0.80;;;19.70;99.90;;;;;;5063115;28;20036;-73
2021/10/05 11:04:14;;;;;;;0.77;0.60;;;20.40;99.80;;;;;;5044041;28;20095;-72
2021/10/05 11:06:47;;;;;;;1.33;0.60;;;20.70;98.70;;;;;;5065587;28;20028;-73
2021/10/05 11:09:13;;;;;;;0.98;0.60;;;20.60;98.60;;;;;;5062537;28;20454;-73
2021/10/05 11:11:43;;;;;;;0.55;0.40;;;21.10;98.70;;;;;;5068585;28;20407;-73
2021/10/05 11:14:18;;;;;;;0.40;0.40;;;20.70;98.60;;;;;;5065752;28;20120;-73
2021/10/05 11:16:44;;;;;;;1.15;0.70;;;20.20;99.00;;;;;;5071392;28;20024;-73
2021/10/05 11:19:11;;;;;;;0.47;0.47;;;20.50;97.90;;;;;;5059463;28;20562;-74
2021/10/05 11:21:42;;;;;;;0.55;0.50;;;21.00;98.50;;;;;;5068437;28;20032;-73
2021/10/05 11:24:08;;;;;;;1.25;0.65;;;21.10;98.00;;;;;;5059877;28;20032;-73
2021/10/05 11:26:47;;;;;;;2.15;0.88;;;21.40;97.80;;;;;;5067440;28;20050;-73
2021/10/05 11:29:25;;;;;;;0.75;0.50;;;21.30;97.50;;;;;;5070162;28;20582;-73
2021/10/05 11:31:58;;;;;;;0.60;0.60;;;21.70;96.40;;;;;;5055144;28;20039;-73
2021/10/05 11:34:26;;;;;;;0.40;0.40;;;21.90;97.10;;;;;;5069850;28;20043;-73
2021/10/05 11:36:52;;;;;;;0.82;0.50;;;22.30;95.80;;;;;;5067565;28;20443;-74
2021/10/05 11:39:26;;;;;;;0.73;0.60;;;22.10;95.90;;;;;;5048682;28;20040;-73
2021/10/05 11:42:13;;;;;;;0.43;0.43;;;24.10;97.50;;;;;;5067803;28;20025;-73
2021/10/05 11:45:00;;;;;;;0.70;0.50;;;23.60;94.40;;;;;;5063428;28;20024;-73
2021/10/05 11:47:28;;;;;;;1.90;1.10;;;22.80;95.20;;;;;;5063312;28;20058;-74
2021/10/05 11:50:00;;;;;;;0.73;0.52;;;22.60;94.80;;;;;;5072018;28;20020;-73
2021/10/05 11:52:31;;;;;;;0.93;0.60;;;22.50;95.20;;;;;;5049907;28;20086;-73
2021/10/05 11:54:58;;;;;;;0.85;0.60;;;22.80;94.10;;;;;;5054007;28;20659;-73
2021/10/05 11:57:27;;;;;;;0.60;0.40;;;22.20;94.40;;;;;;5069106;28;20036;-73
2021/10/05 11:59:57;;;;;;;0.80;0.45;;;22.50;95.00;;;;;;5063270;28;20032;-73
2021/10/05 12:02:23;;;;;;;;;;;22.60;94.10;;;;;;5065441;28;20021;-73
2021/10/05 12:04:53;;;;;;;0.60;0.47;;;23.10;94.30;;;;;;5051531;28;19912;-73
2021/10/05 12:07:21;;;;;;;0.60;0.60;;;22.80;94.00;;;;;;5063447;28;20028;-73
2021/10/05 12:10:02;;;;;;;0.57;0.57;;;22.50;94.30;;;;;;5050350;28;20024;-73
2021/10/05 12:12:33;;;;;;;0.75;0.50;;;23.10;93.90;;;;;;5045302;28;20127;-72
2021/10/05 12:15:11;;;;;;;0.60;0.60;;;22.60;93.50;;;;;;5065526;28;20036;-73
2021/10/05 12:17:37;;;;;;;1.27;0.60;;;22.80;94.30;;;;;;5071569;28;20028;-73
2021/10/05 12:20:14;;;;;;;1.77;0.88;;;22.50;93.10;;;;;;5051829;28;20032;-73
2021/10/05 12:22:47;;;;;;;0.40;0.40;;;21.90;94.40;;;;;;5071433;28;20021;-73
2021/10/05 12:25:14;;;;;;;1.48;0.70;;;21.50;94.70;;;;;;5064953;28;20115;-73
2021/10/05 12:27:47;;;;;;;0.90;0.63;;;21.70;95.00;;;;;;5065600;28;20481;-73
2021/10/05 12:30:21;;;;;;;0.50;0.50;;;22.00;95.10;;;;;;5071516;28;20121;-73
2021/10/05 12:32:48;;;;;;;0.50;0.50;;;23.10;92.90;;;;;;5048952;28;20031;-72
2021/10/05 12:35:29;;;;;;;0.98;0.52;;;23.70;92.80;;;;;;5068864;28;20411;-73
2021/10/05 12:38:14;;;;;;;1.20;0.70;;;23.90;91.30;;;;;;5067596;28;20048;-72
2021/10/05 12:40:49;;;;;;;0.60;0.60;;;23.20;92.50;;;;;;5070457;28;20021;-73
2021/10/05 12:43:42;;;;;;;1.30;0.63;;;22.90;92.30;;;;;;5068292;28;20033;-72
2021/10/05 12:46:10;;;;;;;1.58;0.60;;;22.80;92.90;;;;;;5068089;28;20020;-73
2021/10/05 12:48:38;;;;;;;0.82;0.52;;;22.50;93.40;;;;;;5045581;28;20040;-73
2021/10/05 12:51:17;;;;;;;0.75;0.60;;;20.00;99.00;;;;;;5070995;28;20020;-73